Time;durP1;ratioP1;P1;durP2;ratioP2;P2;SDS_P1;SDS_P2;PMS_P1;PMS_P2;Temp;Humidity;BMP_temperature;BMP_pressure;BME280_temperature;BME280_humidity;BME280_pressure;Samples;Min_cycle;Max_cycle;Signal;HPM_P1;HPM_P2
2021/01/24 00:00:29;;;;;;;55.85;17.13;;;;;;;;;;4901892;28;20091;-82
2021/01/24 00:02:53;;;;;;;61.00;17.25;;;-1.30;99.90;;;;;;4893885;28;20118;-81
2021/01/24 00:05:16;;;;;;;48.05;17.92;;;-1.30;99.90;;;;;;4902152;28;20445;-81
2021/01/24 00:07:39;;;;;;;45.33;17.10;;;-1.40;99.90;;;;;;4903648;28;20105;-82
2021/01/24 00:10:03;;;;;;;59.55;18.00;;;-1.40;99.90;;;;;;4906298;28;20105;-83
2021/01/24 00:12:26;;;;;;;48.17;16.70;;;-1.50;99.90;;;;;;4904351;28;20098;-82
2021/01/24 00:14:49;;;;;;;52.03;18.55;;;-1.50;99.90;;;;;;4903222;28;20092;-82
2021/01/24 00:17:12;;;;;;;72.57;18.00;;;-1.50;99.90;;;;;;4904482;28;20102;-82
2021/01/24 00:19:38;;;;;;;57.65;18.08;;;-1.40;99.90;;;;;;4903762;28;20092;-82
2021/01/24 00:22:01;;;;;;;49.53;17.73;;;-1.50;99.90;;;;;;4901777;28;20098;-83
2021/01/24 00:24:24;;;;;;;54.67;19.38;;;-1.50;99.90;;;;;;4906763;28;20149;-82
2021/01/24 00:26:47;;;;;;;55.38;17.13;;;-1.50;99.90;;;;;;4894300;28;20097;-80
2021/01/24 00:29:11;;;;;;;48.00;18.35;;;-1.50;99.90;;;;;;4902555;28;20113;-82
2021/01/24 00:31:35;;;;;;;67.35;19.23;;;-1.50;99.90;;;;;;4903130;28;20121;-83
2021/01/24 00:33:58;;;;;;;53.65;18.52;;;-1.60;99.90;;;;;;4907005;28;20094;-82
2021/01/24 00:36:22;;;;;;;48.97;17.83;;;-1.60;99.90;;;;;;4904470;28;20547;-82
2021/01/24 00:38:45;;;;;;;47.63;17.70;;;-1.60;99.90;;;;;;4904269;28;20098;-82
2021/01/24 00:41:08;;;;;;;51.15;16.63;;;;;;;;;;4901426;28;20098;-82
2021/01/24 00:43:32;;;;;;;55.65;16.13;;;-1.50;99.90;;;;;;4901135;28;20466;-82
2021/01/24 00:45:55;;;;;;;52.72;17.75;;;-1.50;99.90;;;;;;4890489;28;20139;-82
2021/01/24 00:48:18;;;;;;;59.10;18.60;;;-1.40;99.90;;;;;;4902905;28;20093;-82
2021/01/24 00:50:41;;;;;;;58.55;20.85;;;;;;;;;;4902456;28;20109;-82
2021/01/24 00:53:05;;;;;;;57.92;18.00;;;;;;;;;;4903371;28;20133;-82
2021/01/24 00:55:28;;;;;;;64.22;19.23;;;-1.50;99.90;;;;;;4903393;28;20100;-82
2021/01/24 00:57:51;;;;;;;51.97;19.17;;;-1.60;99.90;;;;;;4904429;28;20107;-82
2021/01/24 01:00:14;;;;;;;67.25;18.10;;;-1.70;99.90;;;;;;4901957;28;20171;-82
2021/01/24 01:02:38;;;;;;;46.47;17.05;;;-1.70;99.90;;;;;;4901903;28;20091;-82
2021/01/24 01:05:01;;;;;;;54.95;18.80;;;-1.70;99.90;;;;;;4902666;28;20506;-82
2021/01/24 01:07:24;;;;;;;50.15;18.73;;;-1.60;99.90;;;;;;4905609;28;20092;-82
2021/01/24 01:09:48;;;;;;;65.18;18.80;;;-1.60;99.90;;;;;;4903317;28;20114;-82
2021/01/24 01:12:11;;;;;;;62.03;17.85;;;-1.40;99.90;;;;;;4903636;28;20108;-82
2021/01/24 01:14:34;;;;;;;53.55;17.17;;;-1.30;99.90;;;;;;4903623;28;20524;-82
2021/01/24 01:16:57;;;;;;;55.92;18.42;;;-1.10;99.90;;;;;;4901571;28;20101;-82
2021/01/24 01:19:19;;;;;;;58.47;19.42;;;-1.00;99.90;;;;;;4901472;28;20140;-83
2021/01/24 01:21:46;;;;;;;65.10;19.48;;;-0.90;99.90;;;;;;4901652;28;20107;-83
2021/01/24 01:24:09;;;;;;;58.67;19.42;;;-0.80;99.90;;;;;;4902773;28;20463;-84
2021/01/24 01:26:33;;;;;;;81.60;25.55;;;-0.80;99.90;;;;;;4902808;28;20144;-84
2021/01/24 01:28:56;;;;;;;68.38;19.42;;;-0.70;99.90;;;;;;4899800;28;20094;-84
2021/01/24 01:31:19;;;;;;;68.03;20.55;;;;;;;;;;4902258;28;20116;-83
2021/01/24 01:33:42;;;;;;;60.00;19.67;;;-1.60;99.90;;;;;;4911669;28;20253;-84
2021/01/24 01:36:08;;;;;;;75.15;19.83;;;-0.70;99.90;;;;;;4901688;28;20092;-84
2021/01/24 01:38:31;;;;;;;67.15;22.50;;;;;;;;;;4898273;28;20094;-84
2021/01/24 01:40:55;;;;;;;66.97;19.48;;;-0.70;99.90;;;;;;4924215;28;20096;-84
2021/01/24 01:43:20;;;;;;;56.88;19.95;;;-0.60;99.90;;;;;;4901675;28;20096;-84
2021/01/24 01:45:43;;;;;;;65.20;19.25;;;-0.50;99.90;;;;;;4901952;28;20092;-85
2021/01/24 01:48:07;;;;;;;51.45;19.00;;;-0.50;99.90;;;;;;4901733;28;20120;-85
2021/01/24 01:50:30;;;;;;;52.63;18.77;;;;;;;;;;4906456;28;20662;-84
2021/01/24 01:52:52;;;;;;;61.53;18.80;;;-0.50;99.90;;;;;;4902017;28;20112;-85
2021/01/24 01:55:15;;;;;;;56.00;19.15;;;;;;;;;;4901684;28;20088;-85
2021/01/24 01:57:38;;;;;;;72.85;20.63;;;-0.40;99.90;;;;;;4914217;28;20182;-86
2021/01/24 02:00:04;;;;;;;60.05;19.13;;;-0.50;99.90;;;;;;4909851;28;20084;-85
2021/01/24 02:02:40;;;;;;;68.25;21.13;;;-0.50;99.90;;;;;;4898256;28;20452;-86
2021/01/24 02:05:08;;;;;;;66.13;20.85;;;-0.40;99.90;;;;;;4882238;28;20166;-83
2021/01/24 02:07:38;;;;;;;61.28;19.70;;;-0.40;99.90;;;;;;4891340;28;20110;-85
2021/01/24 02:10:06;;;;;;;68.03;20.40;;;-0.40;99.90;;;;;;4898585;28;20141;-85
2021/01/24 02:12:37;;;;;;;67.45;21.25;;;-0.30;99.90;;;;;;4901451;28;20187;-86
2021/01/24 02:15:05;;;;;;;66.82;20.95;;;-0.30;99.90;;;;;;4900654;28;20086;-86
2021/01/24 02:17:33;;;;;;;63.40;22.50;;;-0.30;99.90;;;;;;4899767;28;20103;-86
2021/01/24 02:20:07;;;;;;;68.78;22.85;;;-0.30;99.90;;;;;;4899601;28;20093;-86
2021/01/24 02:22:33;;;;;;;57.97;19.27;;;-0.30;99.90;;;;;;4902791;28;20094;-85
2021/01/24 02:25:02;;;;;;;62.25;20.60;;;-0.30;99.90;;;;;;4903471;28;20522;-85
2021/01/24 02:27:39;;;;;;;57.72;19.85;;;-0.30;99.90;;;;;;4899965;28;20141;-86
2021/01/24 02:30:22;;;;;;;59.10;19.40;;;-0.20;99.90;;;;;;4900190;28;20572;-85
2021/01/24 02:32:47;;;;;;;52.25;19.83;;;-0.30;99.90;;;;;;4902988;28;20102;-84
2021/01/24 02:35:10;;;;;;;;;;;-0.30;99.90;;;;;;4902081;28;20089;-86
2021/01/24 02:37:34;;;;;;;75.07;19.05;;;-0.30;99.90;;;;;;4902370;28;20046;-86
2021/01/24 02:39:58;;;;;;;51.05;18.65;;;-0.20;99.90;;;;;;4901462;28;20203;-87
2021/01/24 02:42:22;;;;;;;54.05;18.95;;;-0.20;99.90;;;;;;4901043;28;20099;-87
2021/01/24 02:44:45;;;;;;;53.70;19.52;;;-0.30;99.90;;;;;;4902896;28;20083;-87
2021/01/24 02:47:11;;;;;;;58.05;20.13;;;-0.30;99.90;;;;;;4891692;28;20123;-84
2021/01/24 02:49:36;;;;;;;63.20;19.77;;;-0.20;99.90;;;;;;4903530;28;20144;-86
2021/01/24 02:52:01;;;;;;;63.22;20.17;;;-0.30;99.90;;;;;;4901177;28;22892;-86
2021/01/24 02:54:23;;;;;;;56.55;19.02;;;-0.20;99.90;;;;;;4904458;28;23364;-86
2021/01/24 02:56:47;;;;;;;53.97;20.38;;;-0.20;99.90;;;;;;4900959;28;20179;-86
2021/01/24 02:59:09;;;;;;;65.15;20.05;;;-0.30;99.90;;;;;;4901407;28;20101;-87
2021/01/24 03:01:33;;;;;;;49.72;18.80;;;-0.30;99.90;;;;;;4901312;28;20118;-86
2021/01/24 03:03:57;;;;;;;58.53;18.83;;;-0.30;99.90;;;;;;4901846;28;20098;-87
2021/01/24 03:06:20;;;;;;;70.07;20.30;;;-0.30;99.90;;;;;;4898723;28;20179;-85
2021/01/24 03:08:43;;;;;;;58.42;18.83;;;-0.30;99.90;;;;;;4902706;28;20476;-87
2021/01/24 03:11:10;;;;;;;66.47;18.52;;;-0.30;99.90;;;;;;4900043;28;20097;-88
2021/01/24 03:13:40;;;;;;;58.10;19.20;;;-0.20;99.90;;;;;;4900412;28;20133;-86
2021/01/24 03:16:04;;;;;;;51.30;18.58;;;-0.30;99.90;;;;;;4899545;28;20088;-87
2021/01/24 03:18:30;;;;;;;54.20;18.02;;;-0.50;99.90;;;;;;4898996;28;20096;-86
2021/01/24 03:20:55;;;;;;;59.05;19.30;;;-0.40;99.90;;;;;;4883718;28;20729;-87
2021/01/24 03:23:20;;;;;;;62.40;18.40;;;-0.40;99.90;;;;;;4892192;28;20548;-87
2021/01/24 03:25:44;;;;;;;60.47;20.33;;;-0.40;99.90;;;;;;4899850;28;20095;-87
2021/01/24 03:28:10;;;;;;;55.00;19.48;;;-0.40;99.90;;;;;;4903713;28;20194;-86
2021/01/24 03:30:33;;;;;;;58.58;20.38;;;-0.30;99.90;;;;;;4897267;28;20090;-85
2021/01/24 03:32:57;;;;;;;58.50;20.27;;;-0.20;99.90;;;;;;4905698;28;20090;-87
2021/01/24 03:35:20;;;;;;;64.82;19.88;;;-0.10;99.90;;;;;;4903974;28;20092;-87
2021/01/24 03:37:44;;;;;;;68.05;22.52;;;-0.10;99.90;;;;;;4904990;28;20103;-87
2021/01/24 03:40:08;;;;;;;78.43;22.73;;;-0.10;99.90;;;;;;4904321;28;20259;-87
2021/01/24 03:42:31;;;;;;;61.78;22.30;;;-0.10;99.90;;;;;;4906439;28;20099;-86
2021/01/24 03:44:54;;;;;;;65.03;20.85;;;-0.10;99.90;;;;;;4906188;28;20092;-87
2021/01/24 03:47:19;;;;;;;65.55;20.48;;;0.00;99.90;;;;;;4893570;28;20465;-88
2021/01/24 03:49:42;;;;;;;61.00;20.80;;;0.00;99.90;;;;;;4907324;28;21265;-84
2021/01/24 03:52:05;;;;;;;58.38;19.77;;;0.00;99.90;;;;;;4914840;28;20091;-87
2021/01/24 03:54:29;;;;;;;65.72;21.45;;;0.00;99.90;;;;;;4904261;28;20126;-86
2021/01/24 03:56:52;;;;;;;63.22;21.17;;;0.00;99.90;;;;;;4904277;28;20444;-87
2021/01/24 03:59:17;;;;;;;58.47;19.50;;;-0.10;99.90;;;;;;4903273;28;20137;-87
2021/01/24 04:01:40;;;;;;;61.65;20.13;;;-0.10;99.90;;;;;;4905286;28;20162;-88
2021/01/24 04:04:03;;;;;;;47.83;17.65;;;-0.10;99.90;;;;;;4897075;28;20125;-87
2021/01/24 04:06:28;;;;;;;64.72;19.40;;;-0.20;99.90;;;;;;4902194;28;20450;-88
2021/01/24 04:08:51;;;;;;;69.97;20.98;;;-0.20;99.90;;;;;;4904787;28;20175;-87
2021/01/24 04:11:14;;;;;;;63.47;20.65;;;-0.10;99.90;;;;;;4906617;28;20418;-88
2021/01/24 04:13:37;;;;;;;58.42;18.40;;;-0.10;99.90;;;;;;4899546;28;20178;-85
2021/01/24 04:16:00;;;;;;;59.22;18.35;;;0.00;99.90;;;;;;4904051;28;20170;-87
2021/01/24 04:18:23;;;;;;;62.30;18.98;;;0.00;99.90;;;;;;4904630;28;20104;-87
2021/01/24 04:20:46;;;;;;;66.70;20.90;;;0.00;99.90;;;;;;4904284;28;20096;-87
2021/01/24 04:23:09;;;;;;;66.78;20.08;;;0.10;99.90;;;;;;4912828;28;20197;-86
2021/01/24 04:25:31;;;;;;;53.63;18.60;;;0.10;99.90;;;;;;4905608;28;20110;-85
2021/01/24 04:27:55;;;;;;;62.72;19.88;;;0.00;99.90;;;;;;4905754;28;22756;-86
2021/01/24 04:30:19;;;;;;;57.53;19.48;;;0.00;99.90;;;;;;4904562;28;20095;-86
2021/01/24 04:32:41;;;;;;;57.13;19.73;;;0.00;99.90;;;;;;4903544;28;20094;-87
2021/01/24 04:35:05;;;;;;;54.13;18.77;;;;;;;;;;4905090;28;20093;-87
2021/01/24 04:37:27;;;;;;;71.85;21.45;;;0.10;99.90;;;;;;4907596;28;20096;-86
2021/01/24 04:39:51;;;;;;;63.10;18.65;;;0.10;99.90;;;;;;4905383;28;20131;-85
2021/01/24 04:42:14;;;;;;;58.40;19.55;;;0.20;99.90;;;;;;4912865;28;20111;-86
2021/01/24 04:44:38;;;;;;;58.85;18.95;;;;;;;;;;4905868;28;20112;-87
2021/01/24 04:47:02;;;;;;;56.30;19.50;;;0.10;99.90;;;;;;4904383;28;20102;-87
2021/01/24 04:49:26;;;;;;;63.28;19.63;;;0.10;99.90;;;;;;4893760;27;20126;-86
2021/01/24 04:51:50;;;;;;;58.75;19.00;;;0.00;99.90;;;;;;4917471;28;20108;-87
2021/01/24 04:54:13;;;;;;;55.05;19.25;;;0.10;99.90;;;;;;4906513;27;20094;-87
2021/01/24 04:56:39;;;;;;;56.60;19.92;;;0.20;99.90;;;;;;4893104;28;20559;-87
2021/01/24 04:59:02;;;;;;;63.97;20.42;;;0.20;99.90;;;;;;4900355;28;20099;-88
2021/01/24 05:01:27;;;;;;;62.35;19.60;;;0.20;99.90;;;;;;4901987;28;20095;-85
2021/01/24 05:03:50;;;;;;;71.00;21.45;;;;;;;;;;4900949;28;20104;-87
2021/01/24 05:06:13;;;;;;;55.45;18.75;;;0.20;99.90;;;;;;4899308;28;20106;-88
2021/01/24 05:08:36;;;;;;;56.53;19.48;;;0.10;99.90;;;;;;4904836;28;20181;-88
2021/01/24 05:11:05;;;;;;;57.15;17.77;;;0.30;99.90;;;;;;4911679;28;20090;-83
2021/01/24 05:13:28;;;;;;;59.70;19.05;;;0.30;99.90;;;;;;4916960;28;20164;-87
2021/01/24 05:15:51;;;;;;;53.40;19.27;;;0.30;99.90;;;;;;4901169;28;20103;-86
2021/01/24 05:18:15;;;;;;;55.03;19.08;;;;;;;;;;4904520;28;20169;-87
2021/01/24 05:20:38;;;;;;;63.88;20.85;;;0.20;99.90;;;;;;4923370;28;20085;-87
2021/01/24 05:23:01;;;;;;;53.55;19.00;;;0.20;99.90;;;;;;4902792;28;20229;-86
2021/01/24 05:25:27;;;;;;;52.45;18.63;;;0.20;99.90;;;;;;4905250;28;20091;-88
2021/01/24 05:27:50;;;;;;;;;;;0.20;99.90;;;;;;4902370;28;20175;-87
2021/01/24 05:30:14;;;;;;;46.03;16.15;;;0.20;99.90;;;;;;4904186;28;20002;-88
2021/01/24 05:32:44;;;;;;;50.38;17.58;;;0.20;99.90;;;;;;4896441;28;20091;-85
2021/01/24 05:35:11;;;;;;;54.85;19.27;;;0.20;99.90;;;;;;4905085;28;20176;-87
2021/01/24 05:37:37;;;;;;;49.53;17.50;;;0.20;99.90;;;;;;4897909;28;20126;-87
2021/01/24 05:40:02;;;;;;;48.45;17.02;;;0.20;99.90;;;;;;4916825;28;20428;-86
2021/01/24 05:42:25;;;;;;;48.75;17.08;;;0.10;99.90;;;;;;4926928;28;20539;-88
2021/01/24 05:44:48;;;;;;;50.17;17.75;;;0.10;99.90;;;;;;4895781;28;21067;-86
2021/01/24 05:47:12;;;;;;;50.08;18.48;;;0.10;99.90;;;;;;4905416;28;20205;-87
2021/01/24 05:49:34;;;;;;;44.90;16.90;;;0.10;99.90;;;;;;4902390;28;20153;-87
2021/01/24 05:52:04;;;;;;;61.80;18.15;;;0.10;99.90;;;;;;4902048;28;20122;-88
2021/01/24 05:54:41;;;;;;;40.15;15.73;;;0.10;99.90;;;;;;4901544;28;20521;-87
2021/01/24 05:57:04;;;;;;;50.28;17.13;;;0.20;99.90;;;;;;4902750;28;20530;-87
2021/01/24 05:59:27;;;;;;;41.13;17.00;;;0.20;99.90;;;;;;4903706;28;20506;-88
2021/01/24 06:01:50;;;;;;;39.72;15.73;;;0.10;99.90;;;;;;4904493;28;20097;-87
2021/01/24 06:04:13;;;;;;;49.58;16.50;;;0.10;99.90;;;;;;4901830;28;20090;-88
2021/01/24 06:06:36;;;;;;;48.85;17.98;;;0.10;99.90;;;;;;4905177;28;20477;-87
2021/01/24 06:08:59;;;;;;;49.88;18.00;;;0.00;99.90;;;;;;4924556;28;21164;-88
2021/01/24 06:11:23;;;;;;;59.88;17.17;;;0.10;99.90;;;;;;4903500;28;20519;-87
2021/01/24 06:13:47;;;;;;;53.65;18.25;;;0.10;99.90;;;;;;4902154;28;20093;-88
2021/01/24 06:16:23;;;;;;;53.58;18.02;;;0.20;99.90;;;;;;4901657;28;20549;-87
2021/01/24 06:18:54;;;;;;;44.55;16.98;;;0.20;99.90;;;;;;4905204;28;20099;-87
2021/01/24 06:21:24;;;;;;;51.72;16.88;;;0.20;99.90;;;;;;4895162;28;20104;-87
2021/01/24 06:23:54;;;;;;;57.30;18.65;;;0.20;99.90;;;;;;4901789;28;23218;-87
2021/01/24 06:26:19;;;;;;;49.83;17.13;;;0.30;99.90;;;;;;4900073;28;20103;-87
2021/01/24 06:28:45;;;;;;;50.80;17.85;;;0.30;99.90;;;;;;4890539;28;20184;-87
2021/01/24 06:31:13;;;;;;;48.08;17.40;;;0.20;99.90;;;;;;4901707;28;20119;-87
2021/01/24 06:33:38;;;;;;;51.90;17.85;;;0.10;99.90;;;;;;4902722;28;20517;-87
2021/01/24 06:36:03;;;;;;;50.80;18.63;;;0.10;99.90;;;;;;4901686;28;20103;-87
2021/01/24 06:38:31;;;;;;;48.30;17.67;;;0.10;99.90;;;;;;4903634;28;20509;-88
2021/01/24 06:40:54;;;;;;;55.60;16.75;;;0.10;99.90;;;;;;4895659;28;20155;-87
2021/01/24 06:43:33;;;;;;;55.40;17.60;;;0.10;99.90;;;;;;4902769;28;20578;-87
2021/01/24 06:45:56;;;;;;;48.03;17.10;;;0.10;99.90;;;;;;4901087;28;20093;-87
2021/01/24 06:48:39;;;;;;;56.00;18.60;;;0.10;99.90;;;;;;4903712;28;22420;-87
2021/01/24 06:51:24;;;;;;;40.83;15.93;;;0.00;99.90;;;;;;4903459;28;20606;-87
2021/01/24 06:53:48;;;;;;;49.33;15.50;;;0.00;99.90;;;;;;4898773;28;20589;-88
2021/01/24 06:56:17;;;;;;;54.90;18.10;;;0.00;99.90;;;;;;4900182;28;20468;-86
2021/01/24 06:58:49;;;;;;;56.22;17.52;;;0.10;99.90;;;;;;4900234;28;20502;-85
2021/01/24 07:01:32;;;;;;;53.50;17.55;;;0.10;99.90;;;;;;4904039;28;20108;-87
2021/01/24 07:04:41;;;;;;;54.88;16.50;;;0.20;99.90;;;;;;4919720;28;20508;-87
2021/01/24 07:07:32;;;;;;;43.92;16.50;;;0.20;99.90;;;;;;4906043;28;20094;-86
2021/01/24 07:09:56;;;;;;;44.63;16.05;;;0.20;99.90;;;;;;4910057;28;20097;-87
2021/01/24 07:12:34;;;;;;;58.35;17.83;;;0.20;99.90;;;;;;4906474;28;20161;-88
2021/01/24 07:14:58;;;;;;;60.67;16.35;;;0.20;99.90;;;;;;4906877;28;20122;-88
2021/01/24 07:17:21;;;;;;;52.35;18.85;;;0.20;99.90;;;;;;4897875;28;20092;-84
2021/01/24 07:19:46;;;;;;;50.65;17.33;;;0.20;99.90;;;;;;4905977;28;20113;-87
2021/01/24 07:22:11;;;;;;;;;;;0.20;99.90;;;;;;4903045;28;20090;-86
2021/01/24 07:24:34;;;;;;;43.47;15.45;;;;;;;;;;4904961;28;20060;-88
2021/01/24 07:26:58;;;;;;;46.00;16.45;;;0.10;99.90;;;;;;4906250;28;20089;-87
2021/01/24 07:29:22;;;;;;;45.80;16.02;;;0.10;99.90;;;;;;4904358;28;20078;-85
2021/01/24 07:31:47;;;;;;;41.13;16.02;;;0.10;99.90;;;;;;4905090;28;20093;-87
2021/01/24 07:34:10;;;;;;;49.22;16.55;;;0.00;99.90;;;;;;4909603;28;20606;-87
2021/01/24 07:36:34;;;;;;;43.58;15.68;;;0.10;99.90;;;;;;4895010;28;20092;-87
2021/01/24 07:38:57;;;;;;;54.75;16.95;;;0.10;99.90;;;;;;4912492;28;20531;-87
2021/01/24 07:41:20;;;;;;;45.15;15.73;;;0.20;99.90;;;;;;4921118;28;20096;-88
2021/01/24 07:43:44;;;;;;;52.72;16.30;;;0.20;99.90;;;;;;4914282;28;20234;-88
2021/01/24 07:46:07;;;;;;;41.95;15.88;;;0.20;99.90;;;;;;4910135;28;20567;-87
2021/01/24 07:48:30;;;;;;;46.35;16.50;;;0.10;99.90;;;;;;4917863;28;20091;-87
2021/01/24 07:50:54;;;;;;;43.55;15.95;;;0.10;99.90;;;;;;4903855;28;20587;-86
2021/01/24 07:53:19;;;;;;;48.53;16.90;;;0.10;99.90;;;;;;4903611;28;20092;-87
2021/01/24 07:55:43;;;;;;;42.88;15.50;;;0.20;99.90;;;;;;4904226;28;20091;-88
2021/01/24 07:58:06;;;;;;;44.28;15.80;;;;;;;;;;4889274;28;20097;-88
2021/01/24 08:00:29;;;;;;;36.05;14.98;;;0.20;99.90;;;;;;4933436;28;20093;-88
2021/01/24 08:02:53;;;;;;;44.03;17.10;;;0.20;99.90;;;;;;4904626;28;20108;-86
2021/01/24 08:05:18;;;;;;;51.20;17.27;;;0.20;99.90;;;;;;4916547;28;20089;-88
2021/01/24 08:07:41;;;;;;;46.17;17.37;;;0.30;99.90;;;;;;4911683;28;20091;-85
2021/01/24 08:10:04;;;;;;;40.90;14.63;;;;;;;;;;4916860;28;20088;-86
2021/01/24 08:12:27;;;;;;;36.50;15.38;;;0.40;99.90;;;;;;4914496;28;20108;-86
2021/01/24 08:14:51;;;;;;;43.90;15.63;;;0.30;99.90;;;;;;4898009;28;20085;-87
2021/01/24 08:17:19;;;;;;;50.22;15.82;;;0.30;99.90;;;;;;4909455;28;20091;-87
2021/01/24 08:19:43;;;;;;;45.83;16.10;;;0.40;99.90;;;;;;4903797;28;20121;-87
2021/01/24 08:22:07;;;;;;;52.58;17.58;;;0.50;99.90;;;;;;4904372;28;20092;-86
2021/01/24 08:24:31;;;;;;;45.42;16.80;;;0.50;99.90;;;;;;4906785;28;20086;-86
2021/01/24 08:26:53;;;;;;;45.38;17.38;;;0.60;99.90;;;;;;4906339;28;20250;-87
2021/01/24 08:29:17;;;;;;;38.95;15.52;;;0.70;99.90;;;;;;4903739;28;20090;-87
2021/01/24 08:31:40;;;;;;;52.63;17.17;;;;;;;;;;4902863;28;20092;-86
2021/01/24 08:34:04;;;;;;;45.22;16.95;;;0.70;99.90;;;;;;4903904;28;20146;-86
2021/01/24 08:36:29;;;;;;;45.38;16.77;;;0.60;99.90;;;;;;4903941;28;20099;-86
2021/01/24 08:38:56;;;;;;;37.55;16.45;;;0.60;99.90;;;;;;4903394;28;20093;-86
2021/01/24 08:41:19;;;;;;;47.72;17.83;;;0.60;99.90;;;;;;4905191;28;20151;-86
2021/01/24 08:43:43;;;;;;;54.38;18.70;;;0.70;99.90;;;;;;4895289;28;20110;-83
2021/01/24 08:46:20;;;;;;;48.72;16.80;;;0.70;99.90;;;;;;4905708;28;20227;-86
2021/01/24 08:48:43;;;;;;;47.30;16.88;;;0.80;99.90;;;;;;4895056;28;20092;-87
2021/01/24 08:51:06;;;;;;;44.88;16.88;;;;;;;;;;4904338;28;20088;-86
2021/01/24 08:53:29;;;;;;;37.63;15.52;;;0.90;99.90;;;;;;4904017;28;20095;-86
2021/01/24 08:55:53;;;;;;;43.22;16.52;;;0.80;99.90;;;;;;4902981;28;20092;-87
2021/01/24 08:58:26;;;;;;;51.20;16.50;;;0.90;99.90;;;;;;4904192;28;20084;-86
2021/01/24 09:19:13;;;;;;;88.50;22.20;;;0.80;99.90;;;;;;4900027;28;20421;-85
2021/01/24 11:09:24;;;;;;;47.25;16.80;;;2.00;99.90;;;;;;4966886;27;20098;-81
2021/01/24 11:11:47;;;;;;;47.08;17.45;;;;;;;;;;4963186;27;20095;-83
2021/01/24 11:14:10;;;;;;;42.60;17.63;;;2.10;99.90;;;;;;4963146;27;20454;-84
2021/01/24 11:16:34;;;;;;;45.33;17.80;;;2.10;99.90;;;;;;4952880;27;20496;-84
2021/01/24 11:18:57;;;;;;;45.40;17.90;;;2.20;99.90;;;;;;4962898;27;20090;-84
2021/01/24 11:21:20;;;;;;;56.50;20.80;;;2.20;99.90;;;;;;4961084;27;20101;-84
2021/01/24 11:23:43;;;;;;;56.00;19.00;;;2.30;99.90;;;;;;4951310;27;20529;-84
2021/01/24 11:26:07;;;;;;;49.40;20.00;;;2.40;99.90;;;;;;4962487;27;20094;-81
2021/01/24 11:28:30;;;;;;;53.97;22.50;;;2.50;99.90;;;;;;4959231;27;20083;-82
2021/01/24 11:30:53;;;;;;;45.72;18.92;;;2.50;99.90;;;;;;4955733;27;20096;-81
2021/01/24 11:33:16;;;;;;;41.45;17.92;;;2.60;99.90;;;;;;4952711;27;20093;-81
2021/01/24 11:35:39;;;;;;;43.53;18.77;;;2.60;99.90;;;;;;4974285;27;20159;-82
2021/01/24 11:38:03;;;;;;;45.03;18.02;;;2.60;99.90;;;;;;4962537;27;20585;-82
2021/01/24 11:40:26;;;;;;;39.40;16.95;;;2.60;99.90;;;;;;4960245;27;20108;-84
2021/01/24 11:42:53;;;;;;;37.75;16.67;;;2.60;99.90;;;;;;4953793;27;20089;-84
2021/01/24 11:45:16;;;;;;;38.90;16.25;;;2.70;99.90;;;;;;4963828;27;20089;-84
2021/01/24 11:47:39;;;;;;;42.75;18.13;;;2.70;99.90;;;;;;4961881;27;20093;-84
2021/01/24 11:50:03;;;;;;;48.47;18.10;;;2.60;99.90;;;;;;4961844;27;20107;-83
2021/01/24 11:52:26;;;;;;;43.55;18.17;;;2.50;99.90;;;;;;4960834;27;20105;-83
2021/01/24 11:54:50;;;;;;;41.35;17.92;;;2.40;99.90;;;;;;4959989;27;20086;-83
2021/01/24 11:57:14;;;;;;;44.10;16.75;;;;;;;;;;4962001;27;20487;-82
2021/01/24 11:59:38;;;;;;;52.83;19.77;;;2.40;99.90;;;;;;4959916;27;20190;-83
2021/01/24 12:02:01;;;;;;;46.78;18.13;;;2.30;99.90;;;;;;4961792;27;20104;-83
2021/01/24 12:04:24;;;;;;;49.35;18.67;;;2.30;99.90;;;;;;4962894;27;20445;-83
2021/01/24 12:06:48;;;;;;;53.13;20.20;;;2.40;99.90;;;;;;4960684;27;20107;-84
2021/01/24 12:09:11;;;;;;;55.17;19.30;;;2.40;99.90;;;;;;4960473;27;20146;-84
2021/01/24 12:11:35;;;;;;;48.42;19.92;;;2.40;99.90;;;;;;4977937;27;20504;-84
2021/01/24 12:13:59;;;;;;;52.65;20.05;;;2.30;99.90;;;;;;4984428;27;20103;-83
2021/01/24 12:16:24;;;;;;;59.10;20.48;;;2.20;99.90;;;;;;4962810;27;20095;-83
2021/01/24 12:18:47;;;;;;;46.40;19.65;;;2.10;99.90;;;;;;4952675;27;20090;-82
2021/01/24 12:21:10;;;;;;;54.05;19.02;;;2.10;99.90;;;;;;4979440;27;20092;-81
2021/01/24 12:23:35;;;;;;;52.70;18.92;;;2.20;99.90;;;;;;4953446;27;20116;-82
2021/01/24 12:25:59;;;;;;;50.97;17.75;;;2.20;99.90;;;;;;4959460;27;20449;-82
2021/01/24 12:28:22;;;;;;;50.30;18.20;;;2.20;99.90;;;;;;4959730;27;20093;-82
2021/01/24 12:30:46;;;;;;;45.20;17.95;;;2.20;99.90;;;;;;4962539;27;20142;-83
2021/01/24 12:33:12;;;;;;;49.75;16.92;;;;;;;;;;4961657;27;20092;-80
2021/01/24 12:35:36;;;;;;;48.38;18.67;;;2.10;99.90;;;;;;4960632;27;20541;-81
2021/01/24 12:37:59;;;;;;;51.03;17.92;;;2.10;99.90;;;;;;4955708;27;20146;-79
2021/01/24 12:40:22;;;;;;;51.13;17.67;;;2.10;99.90;;;;;;4964277;27;20086;-81
2021/01/24 12:42:45;;;;;;;55.35;20.25;;;2.10;99.90;;;;;;4952911;27;20119;-82
2021/01/24 12:45:10;;;;;;;58.15;18.38;;;2.10;99.90;;;;;;4961193;27;20521;-81
2021/01/24 12:47:35;;;;;;;46.25;17.08;;;;;;;;;;4960337;27;20077;-83
2021/01/24 12:50:00;;;;;;;46.53;16.73;;;2.00;99.90;;;;;;4964499;27;20254;-82
2021/01/24 12:52:26;;;;;;;56.22;18.05;;;2.00;99.90;;;;;;4960184;27;20204;-82
2021/01/24 12:54:53;;;;;;;60.03;19.50;;;2.00;99.90;;;;;;4962372;27;23207;-82
2021/01/24 12:57:16;;;;;;;50.72;19.73;;;2.00;99.90;;;;;;4962995;27;20082;-82
2021/01/24 12:59:42;;;;;;;50.30;18.70;;;2.00;99.90;;;;;;4958391;27;20079;-82
2021/01/24 13:02:06;;;;;;;56.92;19.60;;;2.00;99.90;;;;;;4957444;27;20606;-82
2021/01/24 13:04:29;;;;;;;56.67;19.75;;;1.90;99.90;;;;;;4960665;27;20673;-81
2021/01/24 13:06:53;;;;;;;53.42;19.70;;;1.90;99.90;;;;;;4960530;27;20120;-81
2021/01/24 13:09:17;;;;;;;55.45;18.58;;;;;;;;;;4938459;27;20505;-81
2021/01/24 13:11:42;;;;;;;58.60;19.80;;;1.90;99.90;;;;;;4949385;27;20150;-80
2021/01/24 13:14:06;;;;;;;54.00;18.98;;;1.90;99.90;;;;;;4911957;27;20095;-81
2021/01/24 13:16:29;;;;;;;53.42;18.75;;;1.90;99.90;;;;;;4959245;27;20104;-80
2021/01/24 13:18:52;;;;;;;54.10;17.15;;;1.90;99.90;;;;;;4962115;27;20086;-82
2021/01/24 13:21:16;;;;;;;50.28;17.02;;;1.80;99.90;;;;;;4960672;27;20099;-81
2021/01/24 13:23:40;;;;;;;43.13;16.13;;;;;;;;;;4966869;27;20090;-81
2021/01/24 13:26:03;;;;;;;54.78;17.70;;;1.90;99.90;;;;;;4961825;27;20099;-79
2021/01/24 13:28:27;;;;;;;58.70;17.95;;;1.90;99.90;;;;;;4961025;27;20092;-81
2021/01/24 13:30:50;;;;;;;50.92;16.42;;;;;;;;;;4960840;27;20088;-81
2021/01/24 13:33:15;;;;;;;51.28;18.27;;;;;;;;;;4961129;27;20214;-81
2021/01/24 13:35:39;;;;;;;54.35;17.63;;;1.90;99.90;;;;;;4948494;27;20080;-81
2021/01/24 13:38:04;;;;;;;55.08;18.33;;;1.90;99.90;;;;;;4960245;27;20098;-81
2021/01/24 13:40:30;;;;;;;49.03;17.90;;;1.80;99.90;;;;;;4958697;27;20083;-80
2021/01/24 13:42:53;;;;;;;46.25;15.60;;;1.80;99.90;;;;;;4964087;27;20089;-81
2021/01/24 13:45:18;;;;;;;47.95;17.23;;;1.80;99.90;;;;;;4957986;27;20094;-82
2021/01/24 13:47:41;;;;;;;53.70;18.35;;;;;;;;;;4961361;27;20084;-81
2021/01/24 13:50:06;;;;;;;58.70;19.13;;;1.90;99.90;;;;;;4979602;27;20618;-82
2021/01/24 13:52:30;;;;;;;57.00;17.30;;;1.80;99.90;;;;;;4974792;27;20087;-82
2021/01/24 13:54:53;;;;;;;48.20;16.05;;;1.80;99.90;;;;;;4977047;27;20086;-82
2021/01/24 13:57:19;;;;;;;51.88;16.52;;;1.80;99.90;;;;;;4978886;27;20087;-81
2021/01/24 13:59:44;;;;;;;48.38;17.00;;;1.70;99.90;;;;;;4960780;27;20101;-82
2021/01/24 14:02:08;;;;;;;53.93;16.93;;;1.70;99.90;;;;;;4962997;27;20113;-81
2021/01/24 14:04:32;;;;;;;48.53;15.13;;;1.70;99.90;;;;;;4958948;27;23545;-81
2021/01/24 14:06:55;;;;;;;48.55;15.38;;;;;;;;;;4960569;27;20917;-81
2021/01/24 14:09:19;;;;;;;42.78;15.20;;;1.60;99.90;;;;;;4973134;27;20517;-82
2021/01/24 14:11:43;;;;;;;41.42;14.48;;;1.60;99.90;;;;;;4980396;27;20101;-81
2021/01/24 14:14:07;;;;;;;40.50;14.02;;;1.60;99.90;;;;;;4946283;27;20513;-81
2021/01/24 14:16:33;;;;;;;41.92;13.65;;;1.60;99.90;;;;;;4961893;27;20081;-81
2021/01/24 14:18:55;;;;;;;;;;;1.50;99.90;;;;;;4961659;27;20183;-81
2021/01/24 14:21:19;;;;;;;37.80;13.32;;;1.50;99.90;;;;;;4983202;27;19969;-82
2021/01/24 14:23:43;;;;;;;42.25;14.25;;;1.50;99.90;;;;;;4982536;27;21565;-81
2021/01/24 14:26:06;;;;;;;34.15;12.80;;;2.70;99.90;;;;;;4982194;27;20122;-81
2021/01/24 14:28:30;;;;;;;40.50;12.10;;;;;;;;;;4966289;27;20099;-81
2021/01/24 14:30:55;;;;;;;44.30;13.05;;;1.50;99.90;;;;;;4960588;27;20525;-80
2021/01/24 14:33:19;;;;;;;36.70;11.82;;;1.50;99.90;;;;;;4966495;27;20108;-81
2021/01/24 14:35:43;;;;;;;38.55;12.68;;;1.50;99.90;;;;;;4965546;27;20094;-81